sensor_id;sensor_type;location;lat;lon;timestamp;P1;durP1;ratioP1;P2;durP2;ratioP2
22468;SDS011;11401;50.792;4.352;2024-01-06T00:00:20;2.17;;;1.98;;
22468;SDS011;11401;50.792;4.352;2024-01-06T00:02:50;2.17;;;1.98;;
22468;SDS011;11401;50.792;4.352;2024-01-06T00:05:17;3.17;;;1.95;;
22468;SDS011;11401;50.792;4.352;2024-01-06T00:07:44;3.58;;;1.58;;
22468;SDS011;11401;50.792;4.352;2024-01-06T00:10:11;4.18;;;1.98;;
22468;SDS011;11401;50.792;4.352;2024-01-06T00:12:42;1.92;;;1.83;;
22468;SDS011;11401;50.792;4.352;2024-01-06T00:15:10;2.05;;;1.63;;
22468;SDS011;11401;50.792;4.352;2024-01-06T00:17:37;1.83;;;1.73;;
22468;SDS011;11401;50.792;4.352;2024-01-06T00:20:05;2.10;;;1.80;;
22468;SDS011;11401;50.792;4.352;2024-01-06T00:22:32;2.35;;;1.70;;
22468;SDS011;11401;50.792;4.352;2024-01-06T00:25:00;3.50;;;2.30;;
22468;SDS011;11401;50.792;4.352;2024-01-06T00:27:28;2.45;;;1.67;;
22468;SDS011;11401;50.792;4.352;2024-01-06T00:29:55;2.60;;;1.58;;
22468;SDS011;11401;50.792;4.352;2024-01-06T00:32:22;2.35;;;1.80;;
22468;SDS011;11401;50.792;4.352;2024-01-06T00:34:49;2.70;;;1.80;;
22468;SDS011;11401;50.792;4.352;2024-01-06T00:37:16;1.73;;;1.60;;
22468;SDS011;11401;50.792;4.352;2024-01-06T00:39:43;3.90;;;2.20;;
22468;SDS011;11401;50.792;4.352;2024-01-06T00:42:10;1.95;;;1.67;;
22468;SDS011;11401;50.792;4.352;2024-01-06T00:44:37;1.85;;;1.52;;
22468;SDS011;11401;50.792;4.352;2024-01-06T00:47:05;2.03;;;1.67;;
22468;SDS011;11401;50.792;4.352;2024-01-06T00:49:32;2.15;;;1.70;;
22468;SDS011;11401;50.792;4.352;2024-01-06T00:52:00;1.67;;;1.58;;
22468;SDS011;11401;50.792;4.352;2024-01-06T00:54:27;3.10;;;1.70;;
22468;SDS011;11401;50.792;4.352;2024-01-06T00:56:54;4.05;;;1.88;;
22468;SDS011;11401;50.792;4.352;2024-01-06T00:59:23;4.85;;;1.80;;
22468;SDS011;11401;50.792;4.352;2024-01-06T01:01:51;2.45;;;1.60;;
22468;SDS011;11401;50.792;4.352;2024-01-06T01:04:19;2.22;;;1.48;;
22468;SDS011;11401;50.792;4.352;2024-01-06T01:06:46;2.40;;;1.73;;
22468;SDS011;11401;50.792;4.352;2024-01-06T01:09:13;2.72;;;1.60;;
22468;SDS011;11401;50.792;4.352;2024-01-06T01:11:41;2.83;;;1.55;;
22468;SDS011;11401;50.792;4.352;2024-01-06T01:14:09;1.88;;;1.77;;
22468;SDS011;11401;50.792;4.352;2024-01-06T01:16:36;1.60;;;1.50;;
22468;SDS011;11401;50.792;4.352;2024-01-06T01:19:04;1.73;;;1.40;;
22468;SDS011;11401;50.792;4.352;2024-01-06T01:21:31;2.40;;;1.60;;
22468;SDS011;11401;50.792;4.352;2024-01-06T01:23:58;3.85;;;1.58;;
22468;SDS011;11401;50.792;4.352;2024-01-06T01:26:25;1.52;;;1.42;;
22468;SDS011;11401;50.792;4.352;2024-01-06T01:28:52;2.45;;;1.60;;
22468;SDS011;11401;50.792;4.352;2024-01-06T01:31:20;2.00;;;1.80;;
22468;SDS011;11401;50.792;4.352;2024-01-06T01:33:47;1.60;;;1.50;;
22468;SDS011;11401;50.792;4.352;2024-01-06T01:36:15;2.58;;;1.60;;
22468;SDS011;11401;50.792;4.352;2024-01-06T01:38:44;2.53;;;1.48;;
22468;SDS011;11401;50.792;4.352;2024-01-06T01:41:11;2.70;;;1.67;;
22468;SDS011;11401;50.792;4.352;2024-01-06T01:43:39;4.85;;;2.33;;
22468;SDS011;11401;50.792;4.352;2024-01-06T01:46:05;3.17;;;1.85;;
22468;SDS011;11401;50.792;4.352;2024-01-06T01:48:33;2.78;;;1.50;;
22468;SDS011;11401;50.792;4.352;2024-01-06T01:51:01;3.85;;;1.95;;
22468;SDS011;11401;50.792;4.352;2024-01-06T01:53:29;1.80;;;1.70;;
22468;SDS011;11401;50.792;4.352;2024-01-06T01:55:58;3.13;;;2.00;;
22468;SDS011;11401;50.792;4.352;2024-01-06T01:58:25;2.08;;;1.58;;
22468;SDS011;11401;50.792;4.352;2024-01-06T02:00:53;4.00;;;1.38;;
22468;SDS011;11401;50.792;4.352;2024-01-06T02:03:20;3.50;;;1.83;;
22468;SDS011;11401;50.792;4.352;2024-01-06T02:05:49;3.15;;;1.90;;
22468;SDS011;11401;50.792;4.352;2024-01-06T02:08:16;1.70;;;1.60;;
22468;SDS011;11401;50.792;4.352;2024-01-06T02:10:43;1.75;;;1.50;;
22468;SDS011;11401;50.792;4.352;2024-01-06T02:13:10;2.53;;;1.60;;
22468;SDS011;11401;50.792;4.352;2024-01-06T08:01:26;5.15;;;3.83;;
22468;SDS011;11401;50.792;4.352;2024-01-06T08:03:54;3.80;;;3.50;;
22468;SDS011;11401;50.792;4.352;2024-01-06T08:06:22;4.30;;;4.00;;
22468;SDS011;11401;50.792;4.352;2024-01-06T08:08:49;4.90;;;3.55;;
22468;SDS011;11401;50.792;4.352;2024-01-06T08:11:16;4.22;;;3.92;;
22468;SDS011;11401;50.792;4.352;2024-01-06T08:13:43;4.30;;;3.90;;
22468;SDS011;11401;50.792;4.352;2024-01-06T08:16:10;6.28;;;3.78;;
22468;SDS011;11401;50.792;4.352;2024-01-06T08:18:37;5.05;;;4.55;;
22468;SDS011;11401;50.792;4.352;2024-01-06T08:21:04;4.65;;;4.25;;
22468;SDS011;11401;50.792;4.352;2024-01-06T08:23:31;4.93;;;4.45;;
22468;SDS011;11401;50.792;4.352;2024-01-06T08:25:58;4.75;;;4.15;;
22468;SDS011;11401;50.792;4.352;2024-01-06T08:28:28;7.43;;;4.80;;
22468;SDS011;11401;50.792;4.352;2024-01-06T08:30:55;5.47;;;4.60;;
22468;SDS011;11401;50.792;4.352;2024-01-06T08:33:22;5.00;;;4.50;;
22468;SDS011;11401;50.792;4.352;2024-01-06T08:35:49;4.80;;;4.10;;
22468;SDS011;11401;50.792;4.352;2024-01-06T08:38:16;6.63;;;5.10;;
22468;SDS011;11401;50.792;4.352;2024-01-06T08:40:43;4.95;;;4.10;;
22468;SDS011;11401;50.792;4.352;2024-01-06T08:43:14;5.15;;;4.65;;
22468;SDS011;11401;50.792;4.352;2024-01-06T08:45:41;7.35;;;4.15;;
22468;SDS011;11401;50.792;4.352;2024-01-06T08:48:08;5.32;;;3.95;;
22468;SDS011;11401;50.792;4.352;2024-01-06T08:50:35;4.70;;;4.30;;
22468;SDS011;11401;50.792;4.352;2024-01-06T08:53:02;4.80;;;4.28;;
22468;SDS011;11401;50.792;4.352;2024-01-06T08:55:29;5.15;;;4.65;;
22468;SDS011;11401;50.792;4.352;2024-01-06T08:57:57;4.50;;;4.10;;
22468;SDS011;11401;50.792;4.352;2024-01-06T09:00:24;8.38;;;4.22;;
22468;SDS011;11401;50.792;4.352;2024-01-06T09:02:51;4.82;;;3.83;;
22468;SDS011;11401;50.792;4.352;2024-01-06T09:05:19;3.40;;;3.15;;
22468;SDS011;11401;50.792;4.352;2024-01-06T09:07:46;3.63;;;3.33;;
22468;SDS011;11401;50.792;4.352;2024-01-06T09:10:20;3.83;;;3.53;;
22468;SDS011;11401;50.792;4.352;2024-01-06T09:12:47;3.28;;;3.05;;
22468;SDS011;11401;50.792;4.352;2024-01-06T09:15:14;3.90;;;3.60;;
22468;SDS011;11401;50.792;4.352;2024-01-06T09:17:42;3.85;;;3.08;;
22468;SDS011;11401;50.792;4.352;2024-01-06T09:20:09;3.72;;;3.42;;
22468;SDS011;11401;50.792;4.352;2024-01-06T09:22:37;4.00;;;3.35;;
22468;SDS011;11401;50.792;4.352;2024-01-06T09:25:04;3.78;;;3.47;;
22468;SDS011;11401;50.792;4.352;2024-01-06T09:27:31;3.75;;;3.45;;
22468;SDS011;11401;50.792;4.352;2024-01-06T09:29:59;5.20;;;3.00;;
22468;SDS011;11401;50.792;4.352;2024-01-06T09:32:27;3.40;;;3.00;;
22468;SDS011;11401;50.792;4.352;2024-01-06T09:34:55;3.95;;;3.40;;
22468;SDS011;11401;50.792;4.352;2024-01-06T09:37:23;4.25;;;3.85;;
22468;SDS011;11401;50.792;4.352;2024-01-06T09:39:50;3.45;;;3.25;;
22468;SDS011;11401;50.792;4.352;2024-01-06T09:42:17;3.65;;;3.03;;
22468;SDS011;11401;50.792;4.352;2024-01-06T09:44:44;3.50;;;2.92;;
22468;SDS011;11401;50.792;4.352;2024-01-06T09:47:11;3.53;;;3.22;;
22468;SDS011;11401;50.792;4.352;2024-01-06T09:49:39;3.10;;;2.90;;
22468;SDS011;11401;50.792;4.352;2024-01-06T09:52:13;3.17;;;2.97;;
22468;SDS011;11401;50.792;4.352;2024-01-06T09:54:51;3.15;;;2.95;;
22468;SDS011;11401;50.792;4.352;2024-01-06T09:57:20;3.10;;;2.72;;
22468;SDS011;11401;50.792;4.352;2024-01-06T09:59:49;3.40;;;3.00;;
22468;SDS011;11401;50.792;4.352;2024-01-06T10:02:16;2.83;;;2.50;;
22468;SDS011;11401;50.792;4.352;2024-01-06T10:04:44;3.20;;;2.90;;
22468;SDS011;11401;50.792;4.352;2024-01-06T10:07:11;4.32;;;2.80;;
22468;SDS011;11401;50.792;4.352;2024-01-06T10:09:40;3.55;;;2.80;;
22468;SDS011;11401;50.792;4.352;2024-01-06T10:12:10;3.20;;;3.00;;
22468;SDS011;11401;50.792;4.352;2024-01-06T10:14:38;2.90;;;2.72;;
22468;SDS011;11401;50.792;4.352;2024-01-06T10:17:06;3.42;;;3.20;;
22468;SDS011;11401;50.792;4.352;2024-01-06T10:19:36;4.85;;;3.22;;
22468;SDS011;11401;50.792;4.352;2024-01-06T10:22:05;5.72;;;3.20;;
22468;SDS011;11401;50.792;4.352;2024-01-06T10:24:36;4.00;;;3.58;;
22468;SDS011;11401;50.792;4.352;2024-01-06T10:27:04;3.40;;;3.17;;
22468;SDS011;11401;50.792;4.352;2024-01-06T10:29:32;4.10;;;3.33;;
22468;SDS011;11401;50.792;4.352;2024-01-06T10:31:59;3.28;;;2.90;;
22468;SDS011;11401;50.792;4.352;2024-01-06T10:34:26;4.25;;;3.95;;
22468;SDS011;11401;50.792;4.352;2024-01-06T10:36:55;7.53;;;3.20;;
22468;SDS011;11401;50.792;4.352;2024-01-06T10:39:23;3.60;;;2.97;;
22468;SDS011;11401;50.792;4.352;2024-01-06T10:41:50;5.18;;;3.35;;
22468;SDS011;11401;50.792;4.352;2024-01-06T10:44:25;2.83;;;2.63;;
22468;SDS011;11401;50.792;4.352;2024-01-06T10:46:54;3.38;;;2.85;;
22468;SDS011;11401;50.792;4.352;2024-01-06T10:49:24;3.88;;;3.38;;
22468;SDS011;11401;50.792;4.352;2024-01-06T10:51:54;3.40;;;3.20;;
22468;SDS011;11401;50.792;4.352;2024-01-06T10:54:22;4.93;;;3.03;;
22468;SDS011;11401;50.792;4.352;2024-01-06T10:56:51;3.85;;;3.50;;
22468;SDS011;11401;50.792;4.352;2024-01-06T10:59:18;4.50;;;3.00;;
22468;SDS011;11401;50.792;4.352;2024-01-06T11:01:51;3.65;;;3.30;;
22468;SDS011;11401;50.792;4.352;2024-01-06T11:04:19;3.28;;;3.08;;
22468;SDS011;11401;50.792;4.352;2024-01-06T11:06:49;3.63;;;3.33;;
22468;SDS011;11401;50.792;4.352;2024-01-06T11:09:24;4.25;;;3.80;;
22468;SDS011;11401;50.792;4.352;2024-01-06T11:12:00;6.05;;;3.58;;
22468;SDS011;11401;50.792;4.352;2024-01-06T11:14:28;4.30;;;3.90;;
22468;SDS011;11401;50.792;4.352;2024-01-06T11:16:55;3.78;;;3.47;;
22468;SDS011;11401;50.792;4.352;2024-01-06T11:22:20;3.65;;;3.35;;
22468;SDS011;11401;50.792;4.352;2024-01-06T11:24:48;3.97;;;3.67;;
22468;SDS011;11401;50.792;4.352;2024-01-06T11:27:20;3.75;;;3.45;;
22468;SDS011;11401;50.792;4.352;2024-01-06T11:29:52;4.25;;;3.80;;
22468;SDS011;11401;50.792;4.352;2024-01-06T11:34:53;4.95;;;4.28;;
22468;SDS011;11401;50.792;4.352;2024-01-06T11:37:34;4.35;;;4.05;;
22468;SDS011;11401;50.792;4.352;2024-01-06T11:45:53;4.15;;;3.75;;
22468;SDS011;11401;50.792;4.352;2024-01-06T11:48:25;5.55;;;3.97;;
22468;SDS011;11401;50.792;4.352;2024-01-06T11:50:58;4.32;;;3.95;;
22468;SDS011;11401;50.792;4.352;2024-01-06T11:53:26;4.63;;;4.22;;
22468;SDS011;11401;50.792;4.352;2024-01-06T11:55:56;4.75;;;4.25;;
22468;SDS011;11401;50.792;4.352;2024-01-06T11:58:23;4.22;;;3.92;;
22468;SDS011;11401;50.792;4.352;2024-01-06T12:00:57;4.28;;;3.92;;
22468;SDS011;11401;50.792;4.352;2024-01-06T12:03:24;3.60;;;3.40;;
22468;SDS011;11401;50.792;4.352;2024-01-06T12:06:02;4.80;;;4.10;;
22468;SDS011;11401;50.792;4.352;2024-01-06T12:08:29;4.85;;;4.47;;
22468;SDS011;11401;50.792;4.352;2024-01-06T12:11:03;4.40;;;4.00;;
22468;SDS011;11401;50.792;4.352;2024-01-06T12:13:31;4.30;;;3.90;;
22468;SDS011;11401;50.792;4.352;2024-01-06T12:15:58;5.05;;;4.40;;
22468;SDS011;11401;50.792;4.352;2024-01-06T12:18:26;4.22;;;3.92;;
22468;SDS011;11401;50.792;4.352;2024-01-06T12:20:54;4.50;;;4.10;;
22468;SDS011;11401;50.792;4.352;2024-01-06T12:23:24;4.82;;;4.03;;
22468;SDS011;11401;50.792;4.352;2024-01-06T12:25:55;4.63;;;4.22;;
22468;SDS011;11401;50.792;4.352;2024-01-06T12:28:24;4.72;;;4.13;;
22468;SDS011;11401;50.792;4.352;2024-01-06T12:30:54;4.47;;;4.18;;
22468;SDS011;11401;50.792;4.352;2024-01-06T12:33:21;4.05;;;3.67;;
22468;SDS011;11401;50.792;4.352;2024-01-06T12:35:48;4.40;;;4.00;;
22468;SDS011;11401;50.792;4.352;2024-01-06T12:38:19;8.02;;;4.20;;
22468;SDS011;11401;50.792;4.352;2024-01-06T12:40:46;5.53;;;3.90;;
22468;SDS011;11401;50.792;4.352;2024-01-06T12:43:13;5.82;;;3.78;;
22468;SDS011;11401;50.792;4.352;2024-01-06T12:45:40;5.25;;;4.50;;
22468;SDS011;11401;50.792;4.352;2024-01-06T12:48:07;3.65;;;3.35;;
22468;SDS011;11401;50.792;4.352;2024-01-06T12:50:35;6.53;;;4.13;;
22468;SDS011;11401;50.792;4.352;2024-01-06T12:53:02;6.40;;;3.55;;
22468;SDS011;11401;50.792;4.352;2024-01-06T12:55:29;4.00;;;3.70;;
22468;SDS011;11401;50.792;4.352;2024-01-06T12:57:56;3.75;;;3.42;;
22468;SDS011;11401;50.792;4.352;2024-01-06T13:00:27;3.80;;;3.40;;
22468;SDS011;11401;50.792;4.352;2024-01-06T13:02:54;6.60;;;3.15;;
22468;SDS011;11401;50.792;4.352;2024-01-06T13:05:22;3.95;;;3.55;;
22468;SDS011;11401;50.792;4.352;2024-01-06T13:07:49;3.28;;;3.03;;
22468;SDS011;11401;50.792;4.352;2024-01-06T13:10:16;5.88;;;4.05;;
22468;SDS011;11401;50.792;4.352;2024-01-06T13:12:44;3.40;;;3.10;;
22468;SDS011;11401;50.792;4.352;2024-01-06T13:15:11;3.30;;;3.00;;
22468;SDS011;11401;50.792;4.352;2024-01-06T13:17:38;5.00;;;3.47;;
22468;SDS011;11401;50.792;4.352;2024-01-06T13:20:05;3.80;;;3.00;;
22468;SDS011;11401;50.792;4.352;2024-01-06T13:22:34;5.25;;;3.50;;
22468;SDS011;11401;50.792;4.352;2024-01-06T13:25:01;3.90;;;3.55;;
22468;SDS011;11401;50.792;4.352;2024-01-06T13:27:29;3.72;;;3.40;;
22468;SDS011;11401;50.792;4.352;2024-01-06T13:29:56;3.22;;;2.88;;
22468;SDS011;11401;50.792;4.352;2024-01-06T13:32:23;4.00;;;3.65;;
22468;SDS011;11401;50.792;4.352;2024-01-06T13:34:50;3.13;;;2.92;;
22468;SDS011;11401;50.792;4.352;2024-01-06T13:37:21;3.85;;;3.55;;
22468;SDS011;11401;50.792;4.352;2024-01-06T13:39:48;3.00;;;2.75;;
22468;SDS011;11401;50.792;4.352;2024-01-06T13:42:15;3.70;;;3.40;;
22468;SDS011;11401;50.792;4.352;2024-01-06T13:44:45;3.35;;;3.10;;
22468;SDS011;11401;50.792;4.352;2024-01-06T13:47:12;4.00;;;3.53;;
22468;SDS011;11401;50.792;4.352;2024-01-06T13:49:39;3.80;;;3.45;;
22468;SDS011;11401;50.792;4.352;2024-01-06T13:52:06;4.10;;;3.70;;
22468;SDS011;11401;50.792;4.352;2024-01-06T13:54:36;6.25;;;4.65;;
22468;SDS011;11401;50.792;4.352;2024-01-06T13:57:04;3.80;;;3.40;;
22468;SDS011;11401;50.792;4.352;2024-01-06T13:59:31;3.85;;;3.55;;
22468;SDS011;11401;50.792;4.352;2024-01-06T14:01:58;3.80;;;3.50;;
22468;SDS011;11401;50.792;4.352;2024-01-06T14:04:25;3.72;;;3.42;;
22468;SDS011;11401;50.792;4.352;2024-01-06T14:06:53;3.50;;;3.08;;
22468;SDS011;11401;50.792;4.352;2024-01-06T14:09:22;3.30;;;3.10;;
22468;SDS011;11401;50.792;4.352;2024-01-06T14:11:49;3.83;;;3.45;;
22468;SDS011;11401;50.792;4.352;2024-01-06T14:14:16;4.00;;;3.58;;
22468;SDS011;11401;50.792;4.352;2024-01-06T14:16:43;3.42;;;3.13;;
22468;SDS011;11401;50.792;4.352;2024-01-06T14:19:13;3.63;;;3.05;;
22468;SDS011;11401;50.792;4.352;2024-01-06T14:21:43;3.75;;;3.33;;
22468;SDS011;11401;50.792;4.352;2024-01-06T14:24:10;6.50;;;3.17;;
22468;SDS011;11401;50.792;4.352;2024-01-06T14:26:37;2.85;;;2.65;;
22468;SDS011;11401;50.792;4.352;2024-01-06T14:29:05;3.15;;;2.90;;
22468;SDS011;11401;50.792;4.352;2024-01-06T14:31:32;3.65;;;3.35;;
22468;SDS011;11401;50.792;4.352;2024-01-06T14:33:59;4.50;;;3.00;;
22468;SDS011;11401;50.792;4.352;2024-01-06T14:36:27;3.70;;;3.40;;
22468;SDS011;11401;50.792;4.352;2024-01-06T14:38:54;5.82;;;3.28;;
22468;SDS011;11401;50.792;4.352;2024-01-06T14:41:21;2.95;;;2.75;;
22468;SDS011;11401;50.792;4.352;2024-01-06T14:43:48;4.15;;;3.05;;
22468;SDS011;11401;50.792;4.352;2024-01-06T14:46:15;3.20;;;3.00;;
22468;SDS011;11401;50.792;4.352;2024-01-06T14:48:43;4.32;;;3.10;;
22468;SDS011;11401;50.792;4.352;2024-01-06T14:51:11;2.92;;;2.72;;
22468;SDS011;11401;50.792;4.352;2024-01-06T14:53:38;6.30;;;3.10;;
22468;SDS011;11401;50.792;4.352;2024-01-06T14:56:05;4.55;;;2.83;;
22468;SDS011;11401;50.792;4.352;2024-01-06T14:58:32;2.70;;;2.50;;
22468;SDS011;11401;50.792;4.352;2024-01-06T15:00:59;5.03;;;3.40;;
22468;SDS011;11401;50.792;4.352;2024-01-06T15:03:26;5.60;;;3.20;;
22468;SDS011;11401;50.792;4.352;2024-01-06T15:05:54;2.92;;;2.72;;
22468;SDS011;11401;50.792;4.352;2024-01-06T15:08:21;4.82;;;2.97;;
22468;SDS011;11401;50.792;4.352;2024-01-06T15:10:48;3.08;;;2.72;;
22468;SDS011;11401;50.792;4.352;2024-01-06T15:13:15;3.22;;;2.92;;
22468;SDS011;11401;50.792;4.352;2024-01-06T15:15:42;2.85;;;2.60;;
22468;SDS011;11401;50.792;4.352;2024-01-06T15:18:12;2.85;;;2.65;;
22468;SDS011;11401;50.792;4.352;2024-01-06T15:20:39;3.75;;;2.80;;
22468;SDS011;11401;50.792;4.352;2024-01-06T15:23:07;3.10;;;2.63;;
22468;SDS011;11401;50.792;4.352;2024-01-06T15:25:34;2.63;;;2.35;;
22468;SDS011;11401;50.792;4.352;2024-01-06T15:28:01;3.22;;;2.30;;
22468;SDS011;11401;50.792;4.352;2024-01-06T15:30:28;2.65;;;2.47;;
22468;SDS011;11401;50.792;4.352;2024-01-06T15:32:56;2.80;;;2.60;;
22468;SDS011;11401;50.792;4.352;2024-01-06T15:35:23;3.00;;;2.53;;
22468;SDS011;11401;50.792;4.352;2024-01-06T15:37:51;2.95;;;2.75;;
22468;SDS011;11401;50.792;4.352;2024-01-06T15:40:18;4.50;;;2.40;;
22468;SDS011;11401;50.792;4.352;2024-01-06T15:42:46;2.88;;;2.67;;
22468;SDS011;11401;50.792;4.352;2024-01-06T15:45:13;2.55;;;2.35;;
22468;SDS011;11401;50.792;4.352;2024-01-06T15:47:41;3.45;;;3.15;;
22468;SDS011;11401;50.792;4.352;2024-01-06T15:50:08;3.17;;;2.88;;
22468;SDS011;11401;50.792;4.352;2024-01-06T15:52:36;3.35;;;3.10;;
22468;SDS011;11401;50.792;4.352;2024-01-06T15:55:04;2.88;;;2.67;;
22468;SDS011;11401;50.792;4.352;2024-01-06T15:57:31;2.75;;;2.55;;
22468;SDS011;11401;50.792;4.352;2024-01-06T15:59:59;2.97;;;2.42;;
22468;SDS011;11401;50.792;4.352;2024-01-06T16:02:26;2.85;;;2.65;;
22468;SDS011;11401;50.792;4.352;2024-01-06T16:04:53;3.38;;;3.08;;
22468;SDS011;11401;50.792;4.352;2024-01-06T16:07:21;3.38;;;2.50;;
22468;SDS011;11401;50.792;4.352;2024-01-06T16:09:49;3.83;;;2.75;;
22468;SDS011;11401;50.792;4.352;2024-01-06T16:12:16;2.88;;;2.72;;
22468;SDS011;11401;50.792;4.352;2024-01-06T16:14:44;3.72;;;2.90;;
22468;SDS011;11401;50.792;4.352;2024-01-06T16:17:11;2.75;;;2.55;;
22468;SDS011;11401;50.792;4.352;2024-01-06T16:19:39;2.97;;;2.65;;
22468;SDS011;11401;50.792;4.352;2024-01-06T16:22:07;2.65;;;2.45;;
22468;SDS011;11401;50.792;4.352;2024-01-06T22:06:32;6.53;;;5.93;;
22468;SDS011;11401;50.792;4.352;2024-01-06T22:09:00;7.10;;;5.63;;
22468;SDS011;11401;50.792;4.352;2024-01-06T22:11:38;6.10;;;5.50;;
22468;SDS011;11401;50.792;4.352;2024-01-06T22:14:05;8.40;;;5.82;;
22468;SDS011;11401;50.792;4.352;2024-01-06T22:16:32;7.75;;;5.68;;
22468;SDS011;11401;50.792;4.352;2024-01-06T22:18:59;7.55;;;6.18;;
22468;SDS011;11401;50.792;4.352;2024-01-06T22:21:26;9.65;;;6.00;;
22468;SDS011;11401;50.792;4.352;2024-01-06T22:23:56;7.13;;;5.82;;
22468;SDS011;11401;50.792;4.352;2024-01-06T22:26:25;9.52;;;6.03;;
22468;SDS011;11401;50.792;4.352;2024-01-06T22:28:54;7.00;;;5.75;;
22468;SDS011;11401;50.792;4.352;2024-01-06T22:31:21;6.65;;;6.03;;
22468;SDS011;11401;50.792;4.352;2024-01-06T22:33:49;8.60;;;6.07;;
22468;SDS011;11401;50.792;4.352;2024-01-06T22:36:16;6.72;;;6.10;;
22468;SDS011;11401;50.792;4.352;2024-01-06T22:38:43;6.53;;;5.95;;
22468;SDS011;11401;50.792;4.352;2024-01-06T22:41:21;7.00;;;6.30;;
22468;SDS011;11401;50.792;4.352;2024-01-06T22:43:49;8.23;;;6.22;;
22468;SDS011;11401;50.792;4.352;2024-01-06T22:46:16;6.38;;;5.70;;
22468;SDS011;11401;50.792;4.352;2024-01-06T22:48:44;5.45;;;4.95;;
22468;SDS011;11401;50.792;4.352;2024-01-06T22:51:11;6.22;;;5.38;;
22468;SDS011;11401;50.792;4.352;2024-01-06T22:53:38;7.40;;;6.18;;
22468;SDS011;11401;50.792;4.352;2024-01-06T22:56:08;6.00;;;5.53;;
22468;SDS011;11401;50.792;4.352;2024-01-06T22:58:36;6.03;;;5.43;;
22468;SDS011;11401;50.792;4.352;2024-01-06T23:01:05;6.32;;;5.35;;
22468;SDS011;11401;50.792;4.352;2024-01-06T23:03:38;7.22;;;6.05;;
22468;SDS011;11401;50.792;4.352;2024-01-06T23:06:09;6.90;;;6.20;;
22468;SDS011;11401;50.792;4.352;2024-01-06T23:08:43;6.03;;;5.43;;
22468;SDS011;11401;50.792;4.352;2024-01-06T23:11:12;5.20;;;4.72;;
22468;SDS011;11401;50.792;4.352;2024-01-06T23:13:40;7.18;;;5.72;;
22468;SDS011;11401;50.792;4.352;2024-01-06T23:16:08;6.72;;;5.22;;
22468;SDS011;11401;50.792;4.352;2024-01-06T23:18:35;6.57;;;5.75;;
22468;SDS011;11401;50.792;4.352;2024-01-06T23:21:06;6.25;;;5.60;;
22468;SDS011;11401;50.792;4.352;2024-01-06T23:23:37;7.10;;;6.05;;
22468;SDS011;11401;50.792;4.352;2024-01-06T23:26:07;5.72;;;5.05;;
22468;SDS011;11401;50.792;4.352;2024-01-06T23:28:34;6.20;;;5.70;;
22468;SDS011;11401;50.792;4.352;2024-01-06T23:31:04;8.15;;;5.82;;
22468;SDS011;11401;50.792;4.352;2024-01-06T23:33:39;7.38;;;5.13;;
22468;SDS011;11401;50.792;4.352;2024-01-06T23:36:07;6.75;;;5.85;;
22468;SDS011;11401;50.792;4.352;2024-01-06T23:38:34;6.50;;;5.90;;
22468;SDS011;11401;50.792;4.352;2024-01-06T23:41:01;6.63;;;5.93;;
22468;SDS011;11401;50.792;4.352;2024-01-06T23:43:29;6.22;;;5.63;;
22468;SDS011;11401;50.792;4.352;2024-01-06T23:45:57;7.68;;;5.80;;
22468;SDS011;11401;50.792;4.352;2024-01-06T23:48:25;6.55;;;5.53;;
22468;SDS011;11401;50.792;4.352;2024-01-06T23:50:53;6.22;;;5.45;;
22468;SDS011;11401;50.792;4.352;2024-01-06T23:53:20;7.75;;;5.97;;
22468;SDS011;11401;50.792;4.352;2024-01-06T23:55:47;5.72;;;5.22;;
22468;SDS011;11401;50.792;4.352;2024-01-06T23:58:14;6.82;;;6.13;;
